createdAt,value
2023-05-05T00:02:15.490Z,15.25
2023-05-05T00:04:43.427Z,18.35
2023-05-05T00:07:10.746Z,19.02
2023-05-05T00:09:39.205Z,17.40
2023-05-05T00:12:06.617Z,16.63
2023-05-05T00:14:34.306Z,19.35
2023-05-05T00:17:01.611Z,18.50
2023-05-05T00:19:29.238Z,20.75
2023-05-05T00:21:56.614Z,21.77
2023-05-05T00:24:24.290Z,23.00
2023-05-05T00:26:51.603Z,20.60
2023-05-05T00:29:19.176Z,19.65
2023-05-05T00:31:46.559Z,19.30
2023-05-05T00:34:14.330Z,18.65
2023-05-05T00:36:41.680Z,19.35
2023-05-05T00:39:09.986Z,19.98
2023-05-05T00:41:37.206Z,21.08
2023-05-05T00:44:07.847Z,19.25
2023-05-05T00:46:36.352Z,19.33
2023-05-05T00:49:04.489Z,18.77
2023-05-05T00:51:32.308Z,19.58
2023-05-05T00:54:00.783Z,19.13
2023-05-05T00:56:28.136Z,20.55
2023-05-05T00:58:56.485Z,20.45
2023-05-05T01:01:24.298Z,19.38
2023-05-05T01:03:52.374Z,19.48
2023-05-05T01:06:26.242Z,18.17
2023-05-05T01:09:12.278Z,18.90
2023-05-05T01:11:59.779Z,18.65
2023-05-05T01:14:43.457Z,19.45
2023-05-05T01:17:19.633Z,18.25
2023-05-05T01:20:17.043Z,19.63
2023-05-05T01:22:57.484Z,20.60
2023-05-05T01:25:41.564Z,18.73
2023-05-05T01:28:19.729Z,19.25
2023-05-05T01:31:38.304Z,22.88
2023-05-05T01:34:08.839Z,19.30
2023-05-05T01:36:42.440Z,19.75
2023-05-05T01:39:15.180Z,19.83
2023-05-05T01:41:49.679Z,21.40
2023-05-05T01:44:20.012Z,20.23
2023-05-05T01:46:50.541Z,20.10
2023-05-05T01:49:17.864Z,20.40
2023-05-05T01:51:47.088Z,21.65
2023-05-05T01:54:16.763Z,19.73
2023-05-05T01:56:46.562Z,19.08
2023-05-05T01:59:14.070Z,20.33
2023-05-05T02:01:46.000Z,18.42
2023-05-05T02:04:15.203Z,20.35
2023-05-05T02:06:45.465Z,21.38
2023-05-05T02:09:14.347Z,21.15
2023-05-05T02:11:42.686Z,20.15
2023-05-05T02:14:11.855Z,21.52
2023-05-05T02:16:41.715Z,22.10
2023-05-05T02:19:09.450Z,22.67
2023-05-05T02:21:37.864Z,21.73
2023-05-05T02:24:10.353Z,21.95
2023-05-05T02:26:40.790Z,22.02
2023-05-05T02:29:20.188Z,22.35
2023-05-05T02:31:55.855Z,22.45
2023-05-05T02:34:31.122Z,21.75
2023-05-05T02:37:03.074Z,21.85
2023-05-05T02:39:44.135Z,23.00
2023-05-05T02:42:20.653Z,21.77
2023-05-05T02:44:52.033Z,21.30
2023-05-05T02:47:20.976Z,22.65
2023-05-05T02:49:49.791Z,24.15
2023-05-05T02:52:17.468Z,23.77
2023-05-05T02:54:45.885Z,21.17
2023-05-05T02:57:20.880Z,21.08
2023-05-05T03:00:07.214Z,23.23
2023-05-05T03:03:03.116Z,23.65
2023-05-05T03:05:40.224Z,22.92
2023-05-05T03:08:17.118Z,22.45
2023-05-05T03:10:59.150Z,22.75
2023-05-05T03:13:29.624Z,23.23
2023-05-05T03:15:59.315Z,25.67
2023-05-05T03:18:29.982Z,25.45
2023-05-05T03:21:08.895Z,22.10
2023-05-05T03:23:39.803Z,23.40
2023-05-05T03:26:17.370Z,23.23
2023-05-05T03:28:45.247Z,23.58
2023-05-05T03:31:33.169Z,23.92
2023-05-05T03:34:02.321Z,24.42
2023-05-05T03:36:36.211Z,25.20
2023-05-05T03:39:04.182Z,24.42
2023-05-05T03:41:34.010Z,26.45
2023-05-05T03:44:01.971Z,27.55
2023-05-05T03:46:30.025Z,30.58
2023-05-05T03:48:57.691Z,29.00
2023-05-05T03:51:27.042Z,26.98
2023-05-05T03:53:55.484Z,26.52
2023-05-05T03:56:23.261Z,28.30
2023-05-05T03:58:55.720Z,27.17
2023-05-05T04:01:23.579Z,27.60
2023-05-05T04:03:53.775Z,27.50
2023-05-05T04:06:21.067Z,28.13
2023-05-05T04:08:48.658Z,26.08
2023-05-05T04:11:16.205Z,26.30
2023-05-05T04:13:43.793Z,26.77
2023-05-05T04:16:11.213Z,35.75
2023-05-05T04:18:39.334Z,28.63
2023-05-05T04:21:06.931Z,29.17
2023-05-05T04:23:36.781Z,29.35
2023-05-05T04:26:04.023Z,26.98
2023-05-05T04:28:31.693Z,26.90
2023-05-05T04:31:01.248Z,25.70
2023-05-05T04:33:31.429Z,24.35
2023-05-05T04:35:58.899Z,26.48
2023-05-05T04:38:26.909Z,23.98
2023-05-05T04:40:54.455Z,24.85
2023-05-05T04:43:22.926Z,25.52
2023-05-05T04:45:56.769Z,29.42
2023-05-05T04:48:28.324Z,26.80
2023-05-05T04:50:57.487Z,25.13
2023-05-05T04:53:27.254Z,25.55
2023-05-05T04:55:54.740Z,25.42
2023-05-05T04:58:22.326Z,23.58
2023-05-05T05:00:50.021Z,24.38
2023-05-05T05:03:19.672Z,24.77
2023-05-05T05:05:47.483Z,23.73
2023-05-05T05:08:20.960Z,25.00
2023-05-05T05:10:48.550Z,23.88
2023-05-05T05:13:16.091Z,22.13
2023-05-05T05:15:43.423Z,23.10
2023-05-05T05:18:11.296Z,22.00
2023-05-05T05:20:39.746Z,21.08
2023-05-05T05:23:08.581Z,21.80
2023-05-05T05:25:40.452Z,19.73
2023-05-05T05:28:10.594Z,20.45
2023-05-05T05:30:49.580Z,21.88
2023-05-05T05:33:17.103Z,19.73
2023-05-05T05:35:45.300Z,21.15
2023-05-05T05:38:13.303Z,21.55
2023-05-05T05:40:41.024Z,21.52
2023-05-05T05:43:09.379Z,20.92
2023-05-05T05:45:38.754Z,21.30
2023-05-05T05:48:08.063Z,19.73
2023-05-05T05:50:36.048Z,18.40
2023-05-05T05:53:03.738Z,19.50
2023-05-05T05:55:31.476Z,17.77
2023-05-05T05:57:59.485Z,19.55
2023-05-05T06:00:27.257Z,17.85
2023-05-05T06:03:02.693Z,18.55
2023-05-05T06:05:33.227Z,17.42
2023-05-05T06:08:01.496Z,17.30
2023-05-05T06:10:30.536Z,17.27
2023-05-05T06:13:03.169Z,17.02
2023-05-05T06:15:32.134Z,17.40
2023-05-05T06:18:01.756Z,18.88
2023-05-05T06:20:29.112Z,16.80
2023-05-05T06:22:57.118Z,16.05
2023-05-05T06:25:26.370Z,18.27
2023-05-05T06:27:53.944Z,18.52
2023-05-05T06:30:21.733Z,16.90
2023-05-05T06:32:49.389Z,15.80
2023-05-05T06:35:16.589Z,19.70
2023-05-05T06:37:44.439Z,19.50
2023-05-05T06:40:14.204Z,19.73
2023-05-05T06:42:42.046Z,18.75
2023-05-05T06:45:14.168Z,17.60
2023-05-05T06:47:42.584Z,17.58
2023-05-05T06:50:10.664Z,17.15
2023-05-05T06:52:38.556Z,18.95
2023-05-05T06:55:06.649Z,17.83
2023-05-05T06:57:34.171Z,17.55
2023-05-05T07:00:04.129Z,15.90
2023-05-05T07:02:34.390Z,17.90
2023-05-05T07:05:01.703Z,17.48
2023-05-05T07:07:29.453Z,16.85
2023-05-05T07:09:56.607Z,18.70
2023-05-05T07:12:24.337Z,16.23
2023-05-05T07:14:51.615Z,18.30
2023-05-05T07:17:19.190Z,17.02
2023-05-05T07:19:46.505Z,16.40
2023-05-05T07:22:14.027Z,15.40
2023-05-05T07:24:41.386Z,16.73
2023-05-05T07:27:09.643Z,15.57
2023-05-05T07:29:36.841Z,15.10
2023-05-05T07:32:04.668Z,14.23
2023-05-05T07:34:34.582Z,17.52
2023-05-05T07:37:02.449Z,15.55
2023-05-05T07:39:29.683Z,16.40
2023-05-05T07:41:57.326Z,16.38
2023-05-05T07:44:24.697Z,15.32
2023-05-05T07:46:52.231Z,17.48
2023-05-05T07:49:20.275Z,15.73
2023-05-05T07:51:50.300Z,14.95
2023-05-05T07:54:17.901Z,11.95
2023-05-05T07:56:45.482Z,13.20
2023-05-05T07:59:12.894Z,12.75
2023-05-05T08:01:40.450Z,15.07
2023-05-05T08:04:08.172Z,13.55
2023-05-05T08:06:36.236Z,10.63
2023-05-05T08:09:03.574Z,10.80
2023-05-05T08:11:31.094Z,12.05
2023-05-05T08:13:58.609Z,11.63
2023-05-05T08:16:26.190Z,10.75
2023-05-05T08:18:53.389Z,11.63
2023-05-05T08:21:21.081Z,11.60
2023-05-05T08:23:49.772Z,12.18
2023-05-05T08:26:20.180Z,11.40
2023-05-05T08:28:47.622Z,13.85
2023-05-05T08:31:16.009Z,16.65
2023-05-05T08:33:43.268Z,14.25
2023-05-05T08:36:11.711Z,12.70
2023-05-05T08:38:38.894Z,14.02
2023-05-05T08:41:08.888Z,12.55
2023-05-05T08:43:36.632Z,13.63
2023-05-05T08:46:05.285Z,12.35
2023-05-05T08:48:34.088Z,12.98
2023-05-05T08:51:05.649Z,14.07
2023-05-05T08:54:03.213Z,15.60
2023-05-05T08:56:40.334Z,13.30
2023-05-05T08:59:10.050Z,13.85
2023-05-05T09:01:38.297Z,14.70
2023-05-05T09:04:07.804Z,16.17
2023-05-05T09:06:37.252Z,15.73
2023-05-05T09:09:04.684Z,14.63
2023-05-05T09:11:34.464Z,14.90
2023-05-05T09:14:02.089Z,17.45
2023-05-05T09:16:29.811Z,11.77
2023-05-05T09:19:04.290Z,12.48
2023-05-05T09:21:32.528Z,9.70
2023-05-05T09:24:11.390Z,12.40
2023-05-05T09:26:42.541Z,10.32
2023-05-05T09:29:10.215Z,12.23
2023-05-05T09:31:38.066Z,12.95
2023-05-05T09:34:16.488Z,7.43
2023-05-05T09:36:48.367Z,7.28
2023-05-05T09:39:20.457Z,7.88
2023-05-05T09:41:48.085Z,6.97
2023-05-05T09:44:18.316Z,7.00
2023-05-05T09:46:53.275Z,6.60
2023-05-05T09:49:26.780Z,12.32
2023-05-05T09:51:55.223Z,23.27
2023-05-05T09:54:27.600Z,9.20
2023-05-05T09:56:56.806Z,8.00
2023-05-05T09:59:24.595Z,8.32
2023-05-05T10:01:52.430Z,7.90
2023-05-05T10:04:25.073Z,7.20
2023-05-05T10:06:52.827Z,11.27
2023-05-05T10:09:20.265Z,8.00
2023-05-05T10:11:48.330Z,8.20
2023-05-05T10:14:16.361Z,6.55
2023-05-05T10:16:49.187Z,7.00
2023-05-05T10:19:18.665Z,6.25
2023-05-05T10:21:54.524Z,6.85
2023-05-05T10:24:47.329Z,6.10
2023-05-05T10:27:20.202Z,6.32
2023-05-05T10:30:02.758Z,5.82
2023-05-05T10:35:02.863Z,6.72
2023-05-05T10:37:31.138Z,6.03
2023-05-05T10:39:59.380Z,8.60
2023-05-05T10:42:27.913Z,6.82
2023-05-05T10:44:55.942Z,6.55
2023-05-05T10:47:24.670Z,6.03
2023-05-05T10:50:02.514Z,6.95
2023-05-05T10:52:36.957Z,5.32
2023-05-05T10:57:45.759Z,7.45
2023-05-05T11:00:39.979Z,6.90
2023-05-05T11:06:02.975Z,7.55
2023-05-05T11:08:31.320Z,6.75
2023-05-05T11:10:59.406Z,6.68
2023-05-05T11:13:27.398Z,8.73
2023-05-05T11:15:55.929Z,7.47
2023-05-05T11:18:40.604Z,7.63
2023-05-05T11:21:15.997Z,5.88
2023-05-05T11:23:51.670Z,8.43
2023-05-05T11:26:51.913Z,6.03
2023-05-05T11:29:19.569Z,6.38
2023-05-05T11:32:13.803Z,6.50
2023-05-05T11:34:50.975Z,8.18
2023-05-05T11:37:22.697Z,7.18
2023-05-05T11:40:23.967Z,8.18
2023-05-05T11:43:04.855Z,8.20
2023-05-05T11:45:32.820Z,7.68
2023-05-05T11:48:25.110Z,7.63
2023-05-05T11:50:53.863Z,8.15
2023-05-05T11:53:21.128Z,8.07
2023-05-05T11:55:48.947Z,6.60
2023-05-05T11:58:20.140Z,6.63
2023-05-05T12:00:48.269Z,5.78
2023-05-05T12:03:17.987Z,6.55
2023-05-05T12:05:47.574Z,6.68
2023-05-05T12:08:14.984Z,6.97
2023-05-05T12:10:42.890Z,6.30
2023-05-05T12:13:20.386Z,7.95
2023-05-05T12:15:48.120Z,5.30
2023-05-05T12:18:19.520Z,5.25
2023-05-05T12:20:47.383Z,5.25
2023-05-05T12:23:14.981Z,5.30
2023-05-05T12:25:42.524Z,5.53
2023-05-05T12:28:09.943Z,5.80
2023-05-05T12:30:37.827Z,5.60
2023-05-05T12:33:07.349Z,5.32
2023-05-05T12:35:35.882Z,4.43
2023-05-05T12:38:03.388Z,5.35
2023-05-05T12:40:53.097Z,5.85
2023-05-05T12:43:31.904Z,5.40
2023-05-05T12:46:07.128Z,6.10
2023-05-05T12:48:35.987Z,5.85
2023-05-05T12:51:23.536Z,5.78
2023-05-05T12:54:11.215Z,5.80
2023-05-05T12:56:46.871Z,5.47
2023-05-05T12:59:23.040Z,5.97
2023-05-05T13:01:54.748Z,5.53
2023-05-05T13:04:26.290Z,5.45
2023-05-05T13:07:13.185Z,16.05
2023-05-05T13:09:40.970Z,5.18
2023-05-05T13:12:11.717Z,4.53
2023-05-05T13:14:40.167Z,4.00
2023-05-05T13:17:08.082Z,4.70
2023-05-05T13:19:35.953Z,4.63
2023-05-05T13:22:03.703Z,4.50
2023-05-05T13:24:42.782Z,4.05
2023-05-05T13:27:14.671Z,3.75
2023-05-05T13:29:42.497Z,4.10
2023-05-05T13:32:10.128Z,4.57
2023-05-05T13:34:39.338Z,3.88
2023-05-05T13:37:07.402Z,4.22
2023-05-05T13:39:34.915Z,5.15
2023-05-05T13:42:03.027Z,5.97
2023-05-05T13:44:31.566Z,4.28
2023-05-05T13:46:59.275Z,4.00
2023-05-05T13:49:27.197Z,4.45
2023-05-05T13:51:56.364Z,3.53
2023-05-05T13:54:23.673Z,4.45
2023-05-05T13:56:51.251Z,4.18
2023-05-05T13:59:18.525Z,5.43
2023-05-05T14:01:46.107Z,5.30
2023-05-05T14:04:13.538Z,3.85
2023-05-05T14:06:41.306Z,10.50
2023-05-05T14:09:08.626Z,3.90
2023-05-05T14:11:36.252Z,4.05
2023-05-05T14:14:03.483Z,5.55
2023-05-05T14:16:31.139Z,4.40
2023-05-05T14:18:58.515Z,5.30
2023-05-05T14:21:26.144Z,5.60
2023-05-05T14:23:53.517Z,3.67
2023-05-05T14:26:22.979Z,6.55
2023-05-05T14:28:50.371Z,4.13
2023-05-05T14:31:18.018Z,3.97
2023-05-05T14:33:45.203Z,6.75
2023-05-05T14:36:14.402Z,4.00
2023-05-05T14:38:42.978Z,3.80
2023-05-05T14:41:10.785Z,6.03
2023-05-05T14:43:38.060Z,3.67
2023-05-05T14:46:07.272Z,4.47
2023-05-05T14:48:34.975Z,4.10
2023-05-05T14:51:02.639Z,3.60
2023-05-05T14:53:29.972Z,3.40
2023-05-05T14:55:57.650Z,4.25
2023-05-05T14:58:25.405Z,4.85
2023-05-05T15:00:54.651Z,4.70
2023-05-05T15:03:22.605Z,3.97
2023-05-05T15:05:51.382Z,4.20
2023-05-05T15:08:22.146Z,4.00
2023-05-05T15:10:49.796Z,3.63
2023-05-05T15:13:17.469Z,4.68
2023-05-05T15:15:45.392Z,4.28
2023-05-05T15:18:16.009Z,4.57
2023-05-05T15:20:44.329Z,4.68
2023-05-05T15:23:12.085Z,4.28
2023-05-05T15:25:39.565Z,4.47
2023-05-05T15:28:06.844Z,5.32
2023-05-05T15:30:34.610Z,4.18
2023-05-05T15:33:03.122Z,3.10
2023-05-05T15:35:30.926Z,3.65
2023-05-05T15:37:58.392Z,4.80
2023-05-05T15:40:26.368Z,4.70
2023-05-05T15:42:53.944Z,5.13
2023-05-05T15:45:21.669Z,5.07
2023-05-05T15:47:50.692Z,6.32
2023-05-05T15:50:23.814Z,4.25
2023-05-05T15:52:58.652Z,4.47
2023-05-05T15:55:29.674Z,5.10
2023-05-05T15:57:57.014Z,4.72
2023-05-05T16:00:25.885Z,5.78
2023-05-05T16:03:14.178Z,5.15
2023-05-05T16:05:41.945Z,5.18
2023-05-05T16:08:10.508Z,4.32
2023-05-05T16:10:39.428Z,4.93
2023-05-05T16:13:07.024Z,5.45
2023-05-05T16:15:35.953Z,3.90
2023-05-05T16:18:03.168Z,4.70
2023-05-05T16:20:31.250Z,5.32
2023-05-05T16:22:59.666Z,4.78
2023-05-05T16:25:27.258Z,6.80
2023-05-05T16:27:56.741Z,4.68
2023-05-05T16:30:24.813Z,5.55
2023-05-05T16:32:52.473Z,6.95
2023-05-05T16:35:20.773Z,3.90
2023-05-05T16:37:48.018Z,4.32
2023-05-05T16:40:16.113Z,5.47
2023-05-05T16:42:44.669Z,4.57
2023-05-05T16:45:12.356Z,4.43
2023-05-05T16:47:39.742Z,4.90
2023-05-05T16:50:09.397Z,8.02
2023-05-05T16:52:36.713Z,5.50
2023-05-05T16:55:04.966Z,5.18
2023-05-05T16:57:32.191Z,6.50
2023-05-05T17:00:00.666Z,5.18
2023-05-05T17:02:27.962Z,6.05
2023-05-05T17:04:55.900Z,7.75
2023-05-05T17:07:23.144Z,6.97
2023-05-05T17:09:51.189Z,6.50
2023-05-05T17:12:18.573Z,6.18
2023-05-05T17:14:46.301Z,5.85
2023-05-05T17:17:18.109Z,6.20
2023-05-05T17:19:49.007Z,6.43
2023-05-05T17:22:16.622Z,5.47
2023-05-05T17:24:44.978Z,7.38
2023-05-05T17:27:12.915Z,6.82
2023-05-05T17:29:41.434Z,15.98
2023-05-05T17:32:09.408Z,6.80
2023-05-05T17:34:37.210Z,10.90
2023-05-05T17:37:04.433Z,11.00
2023-05-05T17:39:32.004Z,9.10
2023-05-05T17:41:59.223Z,7.80
2023-05-05T17:44:27.065Z,10.40
2023-05-05T17:46:54.350Z,14.63
2023-05-05T17:49:22.431Z,10.63
2023-05-05T17:51:49.660Z,16.88
2023-05-05T17:54:17.522Z,16.05
2023-05-05T17:56:44.715Z,15.50
2023-05-05T17:59:13.050Z,14.32
2023-05-05T18:01:45.261Z,30.23
2023-05-05T18:04:18.151Z,25.05
2023-05-05T18:06:45.372Z,34.58
2023-05-05T18:09:13.406Z,39.65
2023-05-05T18:11:40.719Z,45.38
2023-05-05T18:14:08.415Z,38.08
2023-05-05T18:16:40.342Z,39.33
2023-05-05T18:19:12.490Z,28.75
2023-05-05T18:21:39.885Z,29.02
2023-05-05T18:24:19.563Z,29.23
2023-05-05T18:26:51.234Z,28.35
2023-05-05T18:29:19.993Z,28.67
2023-05-05T18:31:51.984Z,33.65
2023-05-05T18:34:22.006Z,25.15
2023-05-05T18:36:53.712Z,26.70
2023-05-05T18:39:21.461Z,23.23
2023-05-05T18:41:48.897Z,39.38
2023-05-05T18:44:16.803Z,32.75
2023-05-05T18:46:44.135Z,35.72
2023-05-05T18:49:11.859Z,35.30
2023-05-05T18:51:39.190Z,27.33
2023-05-05T18:54:06.978Z,21.27
2023-05-05T18:56:34.277Z,19.00
2023-05-05T18:59:01.811Z,25.65
2023-05-05T19:01:29.241Z,30.75
2023-05-05T19:03:57.047Z,40.65
2023-05-05T19:06:24.378Z,28.33
2023-05-05T19:08:52.033Z,26.52
2023-05-05T19:11:19.284Z,29.40
2023-05-05T19:13:46.997Z,16.85
2023-05-05T19:16:14.400Z,23.20
2023-05-05T19:18:42.016Z,25.20
2023-05-05T19:21:09.464Z,24.25
2023-05-05T19:23:38.250Z,16.58
2023-05-05T19:26:06.089Z,24.15
2023-05-05T19:28:33.726Z,13.48
2023-05-05T19:31:01.331Z,14.35
2023-05-05T19:33:28.929Z,16.77
2023-05-05T19:35:56.667Z,9.82
2023-05-05T19:38:24.292Z,14.65
2023-05-05T19:40:54.253Z,8.18
2023-05-05T19:43:22.387Z,9.02
2023-05-05T19:45:49.676Z,9.25
2023-05-05T19:48:18.829Z,10.88
2023-05-05T19:50:46.096Z,16.40
2023-05-05T19:53:14.443Z,15.23
2023-05-05T19:55:42.560Z,32.13
2023-05-05T19:58:10.209Z,27.42
2023-05-05T20:00:38.658Z,30.98
2023-05-05T20:03:07.175Z,50.72
2023-05-05T20:05:34.511Z,76.10
2023-05-05T20:08:02.104Z,58.70
2023-05-05T20:10:30.773Z,102.75
2023-05-05T20:12:59.997Z,114.10
2023-05-05T20:15:27.496Z,63.03
2023-05-05T20:17:55.467Z,24.00
2023-05-05T20:20:23.175Z,20.17
2023-05-05T20:22:50.911Z,20.45
2023-05-05T20:25:19.122Z,13.27
2023-05-05T20:27:48.113Z,10.30
2023-05-05T20:30:15.485Z,11.32
2023-05-05T20:32:44.507Z,11.65
2023-05-05T20:35:12.979Z,10.98
2023-05-05T20:37:41.395Z,9.52
2023-05-05T20:40:09.511Z,11.50
2023-05-05T20:42:38.226Z,9.60
2023-05-05T20:45:07.125Z,12.45
2023-05-05T20:47:35.613Z,8.82
2023-05-05T20:50:04.106Z,8.80
2023-05-05T20:52:33.427Z,8.85
2023-05-05T20:55:00.645Z,6.88
2023-05-05T20:57:28.615Z,8.45
2023-05-05T20:59:55.879Z,6.60
2023-05-05T21:02:24.059Z,8.00
2023-05-05T21:04:52.681Z,8.13
2023-05-05T21:07:20.287Z,7.95
2023-05-05T21:09:47.821Z,7.22
2023-05-05T21:12:15.343Z,7.85
2023-05-05T21:14:45.980Z,7.68
2023-05-05T21:17:13.589Z,9.02
2023-05-05T21:19:41.993Z,8.15
2023-05-05T21:22:10.020Z,8.55
2023-05-05T21:24:39.056Z,9.25
2023-05-05T21:27:06.813Z,8.98
2023-05-05T21:29:37.732Z,9.43
2023-05-05T21:32:09.537Z,10.05
2023-05-05T21:34:37.394Z,11.27
2023-05-05T21:37:06.209Z,9.68
2023-05-05T21:39:33.665Z,11.13
2023-05-05T21:42:01.508Z,10.57
2023-05-05T21:44:36.560Z,10.27
2023-05-05T21:47:06.566Z,15.18
2023-05-05T21:49:37.140Z,17.50
2023-05-05T21:55:38.056Z,13.35
2023-05-05T22:01:44.653Z,10.88
2023-05-05T22:04:25.377Z,10.48
2023-05-05T22:07:06.452Z,10.48
2023-05-05T22:09:51.011Z,12.68
2023-05-05T22:12:50.182Z,11.88
2023-05-05T22:15:35.623Z,18.60
2023-05-05T22:18:34.541Z,12.07
2023-05-05T22:21:22.218Z,10.90
2023-05-05T22:27:00.769Z,11.05
2023-05-05T22:29:41.736Z,10.57
2023-05-05T22:35:29.096Z,10.70
2023-05-05T22:38:13.164Z,13.38
2023-05-05T22:40:49.716Z,11.40
2023-05-05T22:43:24.403Z,10.45
2023-05-05T22:45:53.896Z,9.93
2023-05-05T22:48:21.754Z,10.27
2023-05-05T22:50:49.105Z,10.40
2023-05-05T22:53:45.807Z,10.13
2023-05-05T22:56:31.164Z,11.20
2023-05-05T22:59:36.659Z,9.93
2023-05-05T23:02:13.942Z,12.50
2023-05-05T23:05:34.437Z,13.52
2023-05-05T23:08:13.315Z,9.70
2023-05-05T23:10:50.112Z,10.55
2023-05-05T23:13:22.396Z,10.02
2023-05-05T23:15:51.053Z,9.95
2023-05-05T23:18:20.097Z,9.70
2023-05-05T23:20:50.544Z,8.93
2023-05-05T23:23:21.905Z,10.60
2023-05-05T23:26:04.374Z,11.38
2023-05-05T23:28:35.676Z,10.75
2023-05-05T23:31:07.518Z,13.05
2023-05-05T23:33:42.515Z,10.70
2023-05-05T23:36:11.688Z,11.15
2023-05-05T23:38:45.678Z,11.52
2023-05-05T23:41:18.962Z,13.75
2023-05-05T23:43:47.309Z,11.50
2023-05-05T23:46:27.063Z,12.30
2023-05-05T23:49:02.050Z,13.75
2023-05-05T23:51:33.633Z,13.18
2023-05-05T23:54:06.824Z,14.68
2023-05-05T23:56:40.154Z,13.90
2023-05-05T23:59:11.021Z,14.52
